Time;durP1;ratioP1;P1;durP2;ratioP2;P2;SDS_P1;SDS_P2;PMS_P1;PMS_P2;Temp;Humidity;BMP_temperature;BMP_pressure;BME280_temperature;BME280_humidity;BME280_pressure;Samples;Min_cycle;Max_cycle;Signal;HPM_P1;HPM_P2
2023/12/21 00:00:15;;;;;;;2.33;2.13;;;5.20;99.90;;;;;;5030105;28;20720;-68
2023/12/21 00:02:42;;;;;;;2.33;2.23;;;5.20;99.90;;;;;;5030656;28;20287;-68
2023/12/21 00:05:10;;;;;;;4.33;2.27;;;5.10;99.90;;;;;;5030610;28;20278;-68
2023/12/21 00:07:37;;;;;;;2.77;2.43;;;5.10;99.90;;;;;;5030239;28;20255;-68
2023/12/21 00:10:05;;;;;;;4.50;2.57;;;5.10;99.90;;;;;;5031077;28;20289;-68
2023/12/21 00:12:32;;;;;;;2.93;2.63;;;5.10;99.90;;;;;;5050474;28;20315;-69
2023/12/21 00:14:59;;;;;;;4.03;2.67;;;5.20;99.90;;;;;;5049980;28;20215;-69
2023/12/21 00:17:26;;;;;;;3.03;2.67;;;5.10;99.90;;;;;;5048873;28;20243;-69
2023/12/21 00:19:53;;;;;;;4.40;3.10;;;5.20;99.90;;;;;;5050114;28;20287;-69
2023/12/21 00:22:21;;;;;;;3.37;3.07;;;5.20;99.90;;;;;;5050269;28;20262;-69
2023/12/21 00:24:48;;;;;;;4.57;3.13;;;5.20;99.90;;;;;;5050117;28;20283;-69
2023/12/21 00:27:15;;;;;;;3.43;3.20;;;5.30;99.90;;;;;;5036463;28;20204;-69
2023/12/21 00:29:41;;;;;;;3.50;2.60;;;5.30;99.90;;;;;;5029947;28;20287;-67
2023/12/21 00:32:08;;;;;;;3.10;2.87;;;5.40;99.90;;;;;;5029962;28;20213;-67
2023/12/21 00:34:35;;;;;;;3.10;2.90;;;5.50;99.90;;;;;;5029741;28;20240;-67
2023/12/21 00:37:02;;;;;;;3.43;3.00;;;5.50;99.90;;;;;;5029826;28;20240;-67
2023/12/21 00:39:30;;;;;;;3.33;3.10;;;5.60;99.90;;;;;;5052161;28;20290;-67
2023/12/21 00:41:57;;;;;;;5.03;3.20;;;5.60;99.90;;;;;;5049485;28;20292;-68
2023/12/21 00:44:24;;;;;;;3.27;2.97;;;5.70;99.90;;;;;;5029874;28;20647;-67
2023/12/21 00:46:51;;;;;;;3.47;3.17;;;5.70;99.90;;;;;;5029652;28;20211;-67
2023/12/21 00:49:18;;;;;;;3.50;2.93;;;5.90;99.90;;;;;;5029036;28;20635;-67
2023/12/21 00:51:44;;;;;;;4.23;2.63;;;5.90;99.90;;;;;;5030334;28;20205;-68
2023/12/21 00:54:11;;;;;;;2.87;2.67;;;5.90;99.90;;;;;;5047783;28;20311;-68
2023/12/21 00:56:40;;;;;;;3.97;2.50;;;5.90;99.90;;;;;;5029601;28;20651;-68
2023/12/21 00:59:06;;;;;;;3.00;2.60;;;6.00;99.90;;;;;;5029541;28;20247;-68
2023/12/21 01:01:33;;;;;;;2.70;2.50;;;6.00;99.90;;;;;;5029595;28;20299;-69
2023/12/21 01:04:00;;;;;;;2.70;2.40;;;6.10;99.90;;;;;;5029201;28;20307;-69
2023/12/21 01:06:27;;;;;;;2.60;2.40;;;6.10;99.90;;;;;;5029863;28;20299;-69
2023/12/21 01:08:54;;;;;;;2.10;2.00;;;6.20;99.90;;;;;;5027786;28;20268;-68
2023/12/21 01:11:21;;;;;;;2.23;2.13;;;6.20;99.90;;;;;;5040373;28;20302;-69
2023/12/21 01:13:49;;;;;;;2.50;2.30;;;6.20;99.90;;;;;;5049100;28;20287;-68
2023/12/21 01:16:16;;;;;;;2.20;2.10;;;6.40;99.90;;;;;;5047538;28;20956;-68
2023/12/21 01:18:43;;;;;;;2.60;1.97;;;6.40;99.90;;;;;;5029064;28;20709;-68
2023/12/21 01:21:10;;;;;;;2.70;2.50;;;6.50;99.90;;;;;;5030033;28;20205;-68
2023/12/21 01:23:37;;;;;;;2.70;2.50;;;6.50;99.90;;;;;;5048830;28;20212;-68
2023/12/21 01:26:05;;;;;;;2.17;2.07;;;6.40;99.90;;;;;;5049006;28;20288;-68
2023/12/21 01:28:31;;;;;;;2.10;2.00;;;6.50;99.90;;;;;;5048296;28;20762;-69
2023/12/21 01:31:00;;;;;;;2.23;1.97;;;6.50;99.90;;;;;;5048178;28;20700;-68
2023/12/21 01:33:26;;;;;;;2.17;2.00;;;6.50;99.90;;;;;;5048251;28;20742;-69
2023/12/21 01:35:53;;;;;;;2.10;1.93;;;6.50;99.90;;;;;;5048672;28;21198;-68
2023/12/21 01:38:20;;;;;;;1.80;1.70;;;6.50;99.90;;;;;;5048859;28;20252;-68
2023/12/21 01:40:47;;;;;;;2.73;2.23;;;6.50;99.90;;;;;;5047413;28;20295;-68
2023/12/21 01:43:14;;;;;;;1.37;1.33;;;6.60;99.90;;;;;;5048244;28;20628;-69
2023/12/21 01:45:41;;;;;;;2.00;1.90;;;6.70;99.90;;;;;;5048689;28;20246;-68
2023/12/21 01:48:11;;;;;;;2.30;2.10;;;6.70;99.90;;;;;;5029292;28;20287;-68
2023/12/21 01:50:38;;;;;;;2.30;2.10;;;6.70;99.90;;;;;;5028719;28;20227;-68
2023/12/21 01:53:05;;;;;;;2.33;2.10;;;6.70;99.90;;;;;;5028697;28;20288;-68
2023/12/21 01:55:32;;;;;;;2.00;1.90;;;6.70;99.90;;;;;;5028383;28;20300;-68
2023/12/21 01:58:00;;;;;;;1.53;1.50;;;6.70;99.90;;;;;;5028065;28;20687;-68
2023/12/21 02:00:27;;;;;;;1.90;1.80;;;6.80;99.90;;;;;;5028539;28;20219;-67
2023/12/21 02:02:54;;;;;;;1.80;1.70;;;6.70;99.90;;;;;;5028257;28;20295;-68
2023/12/21 02:05:22;;;;;;;1.93;1.83;;;6.70;99.90;;;;;;5038956;28;20300;-68
2023/12/21 02:07:49;;;;;;;1.57;1.40;;;6.70;99.90;;;;;;5043739;28;20342;-69
2023/12/21 02:10:16;;;;;;;1.33;1.33;;;6.80;99.90;;;;;;5048078;28;20290;-68
2023/12/21 02:12:43;;;;;;;1.50;1.50;;;6.80;99.90;;;;;;5047791;28;20316;-69
2023/12/21 02:15:11;;;;;;;1.70;1.60;;;6.80;99.90;;;;;;5048043;28;20238;-68
2023/12/21 02:17:40;;;;;;;1.60;1.50;;;6.80;99.90;;;;;;5034604;28;20319;-69
2023/12/21 02:20:08;;;;;;;1.70;1.60;;;6.80;99.90;;;;;;5032276;28;20299;-69
2023/12/21 02:22:40;;;;;;;1.43;1.33;;;6.80;99.90;;;;;;5047798;28;20797;-69
2023/12/21 02:25:09;;;;;;;2.60;1.70;;;6.80;99.90;;;;;;5047437;28;20684;-69
2023/12/21 02:27:36;;;;;;;1.70;1.60;;;6.80;99.90;;;;;;5041292;28;20640;-69
2023/12/21 02:30:03;;;;;;;2.00;1.90;;;6.80;99.90;;;;;;5030721;28;20291;-69
2023/12/21 02:32:30;;;;;;;2.73;2.30;;;6.80;99.90;;;;;;5028180;28;20225;-69
2023/12/21 02:34:57;;;;;;;2.20;2.00;;;6.90;99.90;;;;;;5027518;28;20296;-69
2023/12/21 02:37:24;;;;;;;1.93;1.80;;;6.90;99.90;;;;;;5034768;28;20322;-69
2023/12/21 02:39:51;;;;;;;3.17;1.77;;;6.90;99.90;;;;;;5047863;28;20271;-69
2023/12/21 02:42:19;;;;;;;1.70;1.60;;;6.90;99.90;;;;;;5039156;28;20581;-69
2023/12/21 02:44:46;;;;;;;1.57;1.50;;;6.90;99.90;;;;;;5047562;28;20303;-68
2023/12/21 02:47:13;;;;;;;1.83;1.60;;;7.00;99.90;;;;;;5047500;28;20566;-68
2023/12/21 02:49:40;;;;;;;1.60;1.50;;;7.00;99.90;;;;;;5047245;28;20216;-68
2023/12/21 02:52:07;;;;;;;2.77;1.33;;;7.00;99.90;;;;;;5046039;28;20235;-68
2023/12/21 02:54:33;;;;;;;1.47;1.47;;;7.00;99.90;;;;;;5027287;28;20224;-69
2023/12/21 02:57:00;;;;;;;1.33;1.33;;;7.00;99.90;;;;;;5026879;28;20319;-68
2023/12/21 02:59:29;;;;;;;1.57;1.57;;;7.10;99.90;;;;;;5027302;28;20479;-69
2023/12/21 03:01:56;;;;;;;1.50;1.43;;;7.00;99.90;;;;;;5027234;28;20205;-69
2023/12/21 03:04:23;;;;;;;1.60;1.60;;;7.10;99.90;;;;;;5027022;28;20209;-69
2023/12/21 03:06:49;;;;;;;1.50;1.50;;;7.10;99.90;;;;;;5045515;28;20303;-69
2023/12/21 03:09:18;;;;;;;1.90;1.80;;;7.10;99.90;;;;;;5046513;28;20326;-69
2023/12/21 03:11:44;;;;;;;1.73;1.63;;;7.10;99.90;;;;;;5046703;28;20616;-69
2023/12/21 03:14:11;;;;;;;1.60;1.50;;;7.20;99.90;;;;;;5046766;28;20295;-69
2023/12/21 03:16:40;;;;;;;1.67;1.57;;;7.30;99.90;;;;;;5041424;28;20634;-69
2023/12/21 03:19:06;;;;;;;2.00;1.90;;;7.20;99.90;;;;;;5041118;28;20291;-69
2023/12/21 03:21:33;;;;;;;1.80;1.70;;;7.20;99.90;;;;;;5045877;28;20286;-69
2023/12/21 03:24:00;;;;;;;2.20;2.00;;;7.20;99.90;;;;;;5046562;28;20315;-69
2023/12/21 03:26:27;;;;;;;2.17;2.07;;;7.20;99.90;;;;;;5046643;28;20207;-69
2023/12/21 03:28:54;;;;;;;2.17;2.07;;;7.30;99.90;;;;;;5050679;28;20206;-69
2023/12/21 03:31:21;;;;;;;2.40;2.20;;;7.30;99.90;;;;;;5046338;28;20299;-69
2023/12/21 03:33:49;;;;;;;2.23;2.13;;;7.30;99.90;;;;;;5045970;28;20310;-69
2023/12/21 03:36:17;;;;;;;2.53;2.00;;;7.30;99.90;;;;;;5046545;28;20200;-69
2023/12/21 03:38:44;;;;;;;2.47;2.37;;;7.30;99.90;;;;;;5046694;28;20228;-69
2023/12/21 03:41:11;;;;;;;2.33;2.23;;;7.40;99.90;;;;;;5040856;28;20298;-68
2023/12/21 03:43:38;;;;;;;2.57;2.47;;;7.40;99.90;;;;;;5046675;28;20204;-69
2023/12/21 03:46:08;;;;;;;2.70;2.60;;;7.40;99.90;;;;;;5046546;28;20294;-69
2023/12/21 03:48:35;;;;;;;2.80;2.70;;;7.50;99.90;;;;;;5046205;28;20639;-69
2023/12/21 03:51:04;;;;;;;2.53;2.23;;;7.50;99.90;;;;;;5046518;28;20282;-68
2023/12/21 03:53:31;;;;;;;2.77;2.60;;;7.50;99.90;;;;;;5033238;28;20753;-69
2023/12/21 03:55:58;;;;;;;2.53;2.43;;;7.60;99.90;;;;;;5026250;28;20605;-69
2023/12/21 03:58:24;;;;;;;2.50;2.40;;;7.60;99.90;;;;;;5026715;28;20236;-69
2023/12/21 04:00:51;;;;;;;3.00;2.80;;;7.70;99.90;;;;;;5026374;28;20296;-67
2023/12/21 04:03:19;;;;;;;2.60;2.40;;;7.70;99.90;;;;;;5046330;28;20625;-67
2023/12/21 04:05:46;;;;;;;2.73;2.43;;;7.70;99.90;;;;;;5046707;28;20204;-67
2023/12/21 04:08:15;;;;;;;5.10;4.60;;;7.60;99.90;;;;;;5046058;28;20323;-67
2023/12/21 04:10:41;;;;;;;2.67;2.47;;;7.60;99.90;;;;;;5046159;28;20214;-68
2023/12/21 04:13:08;;;;;;;3.07;2.87;;;7.60;99.90;;;;;;5040177;28;20212;-67
2023/12/21 04:15:35;;;;;;;2.40;2.30;;;7.70;99.90;;;;;;5045905;28;20265;-68
2023/12/21 04:18:02;;;;;;;2.60;2.40;;;7.70;99.90;;;;;;5025911;28;20851;-69
2023/12/21 04:20:29;;;;;;;2.80;2.60;;;7.70;99.90;;;;;;5026200;28;20735;-69
2023/12/21 04:22:56;;;;;;;2.80;2.60;;;7.80;99.90;;;;;;5026057;28;20304;-68
2023/12/21 04:25:24;;;;;;;2.70;2.50;;;7.80;99.90;;;;;;5062914;28;20208;-69
2023/12/21 04:27:51;;;;;;;2.27;2.07;;;7.90;99.90;;;;;;5060668;28;20301;-68
2023/12/21 04:30:19;;;;;;;2.53;2.00;;;7.80;99.90;;;;;;5026160;28;20561;-69
2023/12/21 04:32:46;;;;;;;2.20;2.10;;;7.80;99.90;;;;;;5026446;28;20209;-69
2023/12/21 04:35:13;;;;;;;2.03;1.93;;;7.80;99.90;;;;;;5025717;28;20213;-69
2023/12/21 04:37:40;;;;;;;2.30;2.20;;;7.90;99.90;;;;;;5025950;28;20244;-68
2023/12/21 04:40:09;;;;;;;2.10;2.00;;;7.90;99.90;;;;;;5025963;28;20240;-67
2023/12/21 04:42:37;;;;;;;2.40;2.30;;;7.90;99.90;;;;;;5039554;28;20200;-68
2023/12/21 04:45:05;;;;;;;2.37;2.27;;;7.90;99.90;;;;;;5049029;28;20315;-68
2023/12/21 04:47:31;;;;;;;2.27;2.10;;;7.90;99.90;;;;;;5049583;28;20294;-68
2023/12/21 04:49:58;;;;;;;2.70;2.17;;;8.00;99.90;;;;;;5032127;28;20752;-68
2023/12/21 04:52:25;;;;;;;2.20;2.10;;;7.90;99.90;;;;;;5029740;28;20303;-68
2023/12/21 04:54:52;;;;;;;3.00;2.33;;;8.00;99.90;;;;;;5029652;28;20208;-68
2023/12/21 04:57:19;;;;;;;2.80;2.60;;;8.00;99.90;;;;;;5044331;28;20618;-68
2023/12/21 04:59:48;;;;;;;2.30;2.20;;;8.10;99.90;;;;;;5031390;28;20212;-68
2023/12/21 05:02:15;;;;;;;2.50;2.40;;;8.10;99.90;;;;;;5042504;28;20235;-68
2023/12/21 05:04:42;;;;;;;2.40;2.30;;;8.10;99.90;;;;;;5048783;28;20208;-68
2023/12/21 05:07:10;;;;;;;2.13;2.03;;;8.10;99.90;;;;;;5043081;28;20206;-68
2023/12/21 05:09:37;;;;;;;2.40;2.30;;;8.20;99.90;;;;;;5048812;28;20335;-68
2023/12/21 05:12:05;;;;;;;2.13;2.00;;;8.20;99.90;;;;;;5048813;28;20643;-68
2023/12/21 05:14:32;;;;;;;2.07;1.97;;;8.20;99.90;;;;;;5048840;28;20675;-68
2023/12/21 05:17:00;;;;;;;2.40;2.20;;;8.20;99.90;;;;;;5045396;28;20232;-68
2023/12/21 05:19:27;;;;;;;2.23;2.13;;;8.30;99.90;;;;;;5049135;28;20295;-68
2023/12/21 05:21:54;;;;;;;2.10;2.00;;;8.20;99.90;;;;;;5068870;28;20265;-68
2023/12/21 05:24:21;;;;;;;1.90;1.80;;;8.20;99.90;;;;;;5069420;28;20457;-69
2023/12/21 05:26:48;;;;;;;2.10;2.00;;;8.20;99.90;;;;;;5033563;28;20263;-68
2023/12/21 05:29:15;;;;;;;2.07;1.97;;;8.30;99.90;;;;;;5034432;28;20292;-68
2023/12/21 05:31:42;;;;;;;2.13;2.03;;;8.20;99.90;;;;;;5039646;28;20216;-69
2023/12/21 05:34:10;;;;;;;2.20;2.03;;;8.20;99.90;;;;;;5031540;28;20211;-69
2023/12/21 05:36:37;;;;;;;2.00;1.90;;;8.20;99.90;;;;;;5029906;28;20207;-69
2023/12/21 05:39:04;;;;;;;2.10;1.80;;;8.30;99.90;;;;;;5028636;28;20355;-69
2023/12/21 05:41:31;;;;;;;1.93;1.83;;;8.30;99.90;;;;;;5032988;28;20212;-69
2023/12/21 05:43:58;;;;;;;1.90;1.80;;;8.30;99.90;;;;;;5048453;28;20209;-69
2023/12/21 05:46:25;;;;;;;2.13;2.03;;;8.30;99.90;;;;;;5037101;28;20212;-69
2023/12/21 05:48:52;;;;;;;2.20;2.10;;;8.30;99.90;;;;;;5028562;28;20303;-69
2023/12/21 05:51:20;;;;;;;5.53;4.93;;;8.30;99.90;;;;;;5030214;28;20308;-69
2023/12/21 05:53:47;;;;;;;9.20;6.73;;;8.30;99.90;;;;;;5044254;28;20818;-69
2023/12/21 05:56:14;;;;;;;2.90;2.70;;;8.30;99.90;;;;;;5036417;28;20311;-69
2023/12/21 05:58:41;;;;;;;2.20;2.10;;;8.30;99.90;;;;;;5037733;28;20366;-69
2023/12/21 06:01:09;;;;;;;1.97;1.87;;;8.30;99.90;;;;;;5037943;28;20240;-69
2023/12/21 06:03:36;;;;;;;1.80;1.70;;;8.30;99.90;;;;;;5028550;28;20201;-69
2023/12/21 06:06:04;;;;;;;2.10;2.00;;;8.30;99.90;;;;;;5041142;28;20295;-69
2023/12/21 06:08:33;;;;;;;1.90;1.80;;;8.30;99.90;;;;;;5028228;28;20323;-68
2023/12/21 06:11:00;;;;;;;1.47;1.47;;;8.30;99.90;;;;;;5036294;28;20208;-69
2023/12/21 06:13:28;;;;;;;1.60;1.50;;;8.30;99.90;;;;;;5036329;28;20212;-69
2023/12/21 06:15:55;;;;;;;1.53;1.40;;;8.30;99.90;;;;;;5031789;28;20825;-69
2023/12/21 06:18:21;;;;;;;2.00;1.90;;;8.40;99.90;;;;;;5067728;28;20330;-69
2023/12/21 06:20:48;;;;;;;1.40;1.40;;;8.30;99.90;;;;;;5067989;28;20290;-69
2023/12/21 06:23:15;;;;;;;1.50;1.40;;;8.40;99.90;;;;;;5056167;28;20284;-69
2023/12/21 06:25:44;;;;;;;1.10;1.10;;;8.40;99.90;;;;;;5027708;28;20205;-69
2023/12/21 06:28:11;;;;;;;1.33;1.27;;;8.40;99.90;;;;;;5027759;28;20232;-69
2023/12/21 06:30:38;;;;;;;1.00;1.00;;;8.40;99.90;;;;;;5027930;28;20311;-69
2023/12/21 06:33:05;;;;;;;1.40;1.30;;;8.40;99.90;;;;;;5027692;28;20700;-68
2023/12/21 06:35:31;;;;;;;1.53;1.23;;;8.50;99.90;;;;;;5027760;28;20449;-69
2023/12/21 06:37:58;;;;;;;1.27;1.17;;;8.40;99.90;;;;;;5027422;28;20233;-69
2023/12/21 06:40:25;;;;;;;1.10;1.10;;;8.40;99.90;;;;;;5032297;28;20294;-68
2023/12/21 06:42:53;;;;;;;1.60;1.60;;;8.50;99.90;;;;;;5046253;28;20738;-69
2023/12/21 06:45:20;;;;;;;2.20;2.10;;;8.40;99.90;;;;;;5047901;28;20290;-69
2023/12/21 06:47:47;;;;;;;1.50;1.50;;;8.50;99.90;;;;;;5047729;28;20312;-69
2023/12/21 06:50:19;;;;;;;2.20;1.60;;;8.50;99.90;;;;;;5045639;28;20204;-68
2023/12/21 06:52:45;;;;;;;1.70;1.70;;;8.50;99.90;;;;;;5047532;28;20192;-68
2023/12/21 06:55:13;;;;;;;1.40;1.40;;;8.50;99.90;;;;;;5047309;28;20295;-68
2023/12/21 06:57:40;;;;;;;1.60;1.50;;;8.40;99.90;;;;;;5041129;28;20315;-68
2023/12/21 07:00:10;;;;;;;1.27;1.27;;;8.50;99.90;;;;;;5027441;28;20205;-68
2023/12/21 07:02:37;;;;;;;1.30;1.30;;;8.50;99.90;;;;;;5041365;28;20269;-68
2023/12/21 07:05:05;;;;;;;1.20;1.20;;;8.50;99.90;;;;;;5046851;28;20298;-68
2023/12/21 07:07:32;;;;;;;1.23;1.23;;;8.40;99.90;;;;;;5045798;28;20207;-68
2023/12/21 07:09:59;;;;;;;1.40;1.40;;;8.40;99.90;;;;;;5046727;28;20285;-68
2023/12/21 07:12:27;;;;;;;1.57;1.57;;;8.40;99.90;;;;;;5035439;28;20229;-68
2023/12/21 07:14:54;;;;;;;1.40;1.30;;;8.30;99.90;;;;;;5057431;28;20638;-68
2023/12/21 07:17:22;;;;;;;1.30;1.30;;;8.30;99.90;;;;;;5046604;28;20682;-68
2023/12/21 07:19:49;;;;;;;2.00;1.30;;;8.30;99.90;;;;;;5047031;28;20312;-69
2023/12/21 07:22:15;;;;;;;1.30;1.30;;;8.20;99.90;;;;;;5046984;28;20204;-68
2023/12/21 07:24:45;;;;;;;1.17;1.17;;;8.20;99.90;;;;;;5045442;28;20631;-69
2023/12/21 07:27:12;;;;;;;0.90;0.90;;;8.20;99.90;;;;;;5036266;28;20254;-69
2023/12/21 07:29:39;;;;;;;0.90;0.90;;;8.10;99.90;;;;;;5027163;28;20583;-68
2023/12/21 07:32:06;;;;;;;1.30;0.80;;;8.20;99.90;;;;;;5041681;28;20199;-69
2023/12/21 07:34:35;;;;;;;1.33;1.00;;;8.10;99.90;;;;;;5046580;28;20300;-68
2023/12/21 07:37:01;;;;;;;0.83;0.83;;;8.10;99.90;;;;;;5046366;28;20247;-69
2023/12/21 07:39:28;;;;;;;1.00;1.00;;;8.00;99.90;;;;;;5036546;28;20335;-69
2023/12/21 07:41:56;;;;;;;1.00;1.00;;;8.00;99.90;;;;;;5041934;28;20304;-69
2023/12/21 07:44:23;;;;;;;0.87;0.87;;;7.90;99.90;;;;;;5046211;28;20758;-69
2023/12/21 07:46:50;;;;;;;0.70;0.70;;;7.90;99.90;;;;;;5046220;28;20204;-69
2023/12/21 07:49:17;;;;;;;0.70;0.70;;;7.90;99.90;;;;;;5046314;28;20302;-69
2023/12/21 07:51:45;;;;;;;0.80;0.80;;;7.90;99.90;;;;;;5033992;28;20299;-69
2023/12/21 07:54:12;;;;;;;0.80;0.80;;;7.90;99.90;;;;;;5026823;28;20243;-69
2023/12/21 07:56:39;;;;;;;1.63;1.07;;;7.90;99.90;;;;;;5029572;28;20200;-69
2023/12/21 07:59:07;;;;;;;1.10;1.10;;;7.90;99.90;;;;;;5046122;28;20235;-69
2023/12/21 08:01:34;;;;;;;0.97;0.97;;;7.90;99.90;;;;;;5045601;28;20196;-69
2023/12/21 08:04:01;;;;;;;1.43;1.10;;;7.90;99.90;;;;;;5038596;28;20292;-69
2023/12/21 08:06:28;;;;;;;1.03;1.00;;;7.90;99.90;;;;;;5031410;28;20245;-68
2023/12/21 08:08:56;;;;;;;1.43;1.10;;;8.00;99.90;;;;;;5037995;28;20316;-68
2023/12/21 08:11:23;;;;;;;0.80;0.80;;;8.00;99.90;;;;;;5036958;28;21050;-68
2023/12/21 08:13:51;;;;;;;0.90;0.90;;;8.00;99.90;;;;;;5044947;28;20887;-69
2023/12/21 08:16:18;;;;;;;0.90;0.90;;;8.00;99.90;;;;;;5043246;28;20831;-69
2023/12/21 08:18:45;;;;;;;1.10;1.10;;;8.00;99.90;;;;;;5047342;28;20318;-68
2023/12/21 08:21:12;;;;;;;1.40;1.10;;;8.00;99.90;;;;;;5049796;28;20269;-68
2023/12/21 08:23:40;;;;;;;0.67;0.67;;;8.00;99.90;;;;;;5050462;28;20204;-68
2023/12/21 08:26:09;;;;;;;1.97;0.63;;;8.10;99.90;;;;;;5048596;28;20723;-68
2023/12/21 08:28:36;;;;;;;0.60;0.60;;;8.00;99.90;;;;;;5029999;28;20290;-68
2023/12/21 08:31:03;;;;;;;0.70;0.70;;;8.10;99.90;;;;;;5037964;28;20292;-68
2023/12/21 08:33:30;;;;;;;5.47;3.20;;;8.10;99.90;;;;;;5032926;28;20211;-68
2023/12/21 08:35:58;;;;;;;2.20;0.70;;;8.00;99.90;;;;;;5029746;28;20201;-68
2023/12/21 08:38:25;;;;;;;0.57;0.57;;;8.00;99.90;;;;;;5029770;28;20679;-68
2023/12/21 08:40:52;;;;;;;0.40;0.40;;;8.00;99.90;;;;;;5037147;28;20299;-69
2023/12/21 08:43:20;;;;;;;0.63;0.63;;;8.00;99.90;;;;;;5039712;28;20201;-68
2023/12/21 08:45:47;;;;;;;0.60;0.60;;;8.00;99.90;;;;;;5047510;28;20713;-68
2023/12/21 08:48:14;;;;;;;0.60;0.60;;;8.00;99.90;;;;;;5049526;28;20726;-69
2023/12/21 08:50:41;;;;;;;1.30;0.50;;;8.00;99.90;;;;;;5049351;28;20729;-69
2023/12/21 08:53:08;;;;;;;2.10;0.40;;;8.00;99.90;;;;;;5047958;28;20311;-69
2023/12/21 08:55:36;;;;;;;0.80;0.60;;;7.90;99.90;;;;;;5030384;28;20579;-69
2023/12/21 08:58:03;;;;;;;1.23;0.37;;;8.00;99.90;;;;;;5029509;28;20201;-69
2023/12/21 09:00:31;;;;;;;0.63;0.50;;;8.00;99.90;;;;;;5045646;28;20320;-69
2023/12/21 09:02:58;;;;;;;0.30;0.30;;;8.00;99.90;;;;;;5042745;28;20247;-69
2023/12/21 09:05:25;;;;;;;0.47;0.47;;;7.90;99.90;;;;;;5057308;28;20286;-69
2023/12/21 09:07:52;;;;;;;0.30;0.30;;;7.90;99.90;;;;;;5069476;28;20335;-69
2023/12/21 09:10:19;;;;;;;0.40;0.40;;;8.00;99.90;;;;;;5066342;28;20287;-69
2023/12/21 09:12:46;;;;;;;0.60;0.40;;;8.00;99.90;;;;;;5049326;28;20302;-69
2023/12/21 09:15:13;;;;;;;0.60;0.53;;;7.90;99.90;;;;;;5047138;28;20295;-69
2023/12/21 09:17:41;;;;;;;0.50;0.50;;;7.90;99.90;;;;;;5049116;28;20682;-69
2023/12/21 09:20:10;;;;;;;0.77;0.77;;;7.90;99.90;;;;;;5045097;28;20228;-69
2023/12/21 09:22:37;;;;;;;0.20;0.20;;;7.90;99.90;;;;;;5042981;28;20201;-69
2023/12/21 09:25:05;;;;;;;0.50;0.50;;;8.00;99.90;;;;;;5037299;28;20192;-68
2023/12/21 09:27:34;;;;;;;0.20;0.20;;;8.00;99.90;;;;;;5046311;28;20200;-68
2023/12/21 09:30:02;;;;;;;0.30;0.30;;;8.00;99.90;;;;;;5047600;28;20216;-68
2023/12/21 09:32:29;;;;;;;2.43;0.50;;;8.00;99.90;;;;;;5030148;28;20236;-68
2023/12/21 09:34:58;;;;;;;0.37;0.37;;;8.00;99.90;;;;;;5028615;28;20683;-68
2023/12/21 09:37:25;;;;;;;0.37;0.37;;;8.00;99.90;;;;;;5029133;28;20816;-68
2023/12/21 09:39:53;;;;;;;2.13;2.03;;;8.00;99.90;;;;;;5040920;28;20241;-69
2023/12/21 09:42:22;;;;;;;0.40;0.40;;;8.10;99.90;;;;;;5048349;28;20604;-69
2023/12/21 09:44:50;;;;;;;1.37;1.33;;;8.00;99.90;;;;;;5048919;28;20212;-67
2023/12/21 09:47:19;;;;;;;6.00;0.90;;;8.10;99.90;;;;;;5047809;28;20566;-68
2023/12/21 09:49:47;;;;;;;0.97;0.40;;;8.10;99.90;;;;;;5047837;28;20215;-68
2023/12/21 09:52:18;;;;;;;4.87;0.90;;;8.00;99.90;;;;;;5043110;28;20232;-68
2023/12/21 09:54:47;;;;;;;0.40;0.40;;;8.00;99.90;;;;;;5039400;28;20220;-69
2023/12/21 09:57:15;;;;;;;0.60;0.40;;;7.90;99.90;;;;;;5042434;28;20207;-69
2023/12/21 09:59:42;;;;;;;0.23;0.23;;;8.00;99.90;;;;;;5036141;28;20712;-68
2023/12/21 10:02:12;;;;;;;0.20;0.20;;;8.00;99.90;;;;;;5041288;28;20284;-68
2023/12/21 10:04:41;;;;;;;3.53;0.87;;;8.10;99.90;;;;;;5039068;28;20300;-68
2023/12/21 10:07:10;;;;;;;0.30;0.30;;;8.10;99.90;;;;;;5036309;28;20659;-67
2023/12/21 10:09:38;;;;;;;0.40;0.40;;;8.00;99.90;;;;;;5033538;28;20237;-67
2023/12/21 10:12:06;;;;;;;0.40;0.40;;;8.00;99.90;;;;;;5044913;28;20216;-67
2023/12/21 10:14:33;;;;;;;2.53;0.40;;;8.10;99.90;;;;;;5046391;28;20568;-67
2023/12/21 10:17:01;;;;;;;0.40;0.40;;;8.10;99.90;;;;;;5047772;28;20285;-67
2023/12/21 10:19:28;;;;;;;1.43;0.20;;;8.10;99.90;;;;;;5047178;28;20959;-67
2023/12/21 10:21:56;;;;;;;0.20;0.20;;;8.20;99.90;;;;;;5025996;28;20299;-67
2023/12/21 10:24:23;;;;;;;0.20;0.20;;;8.10;99.90;;;;;;5027370;28;20205;-67
2023/12/21 10:26:52;;;;;;;0.50;0.50;;;8.10;99.90;;;;;;5025701;28;20744;-67
2023/12/21 10:29:20;;;;;;;0.40;0.40;;;8.30;99.90;;;;;;5033885;28;20208;-67
2023/12/21 10:31:48;;;;;;;0.20;0.20;;;8.20;99.90;;;;;;5045866;28;20212;-67
2023/12/21 10:34:15;;;;;;;2.80;0.37;;;8.30;99.90;;;;;;5045311;28;20299;-67
2023/12/21 10:36:43;;;;;;;0.27;0.27;;;8.40;99.90;;;;;;5036760;28;20270;-67
2023/12/21 10:39:12;;;;;;;0.30;0.30;;;8.20;99.90;;;;;;5025644;28;20256;-67
2023/12/21 10:41:42;;;;;;;0.20;0.20;;;8.40;99.90;;;;;;5038987;28;20343;-67
2023/12/21 10:44:12;;;;;;;0.30;0.30;;;8.10;99.90;;;;;;5045390;28;20196;-67
2023/12/21 10:46:41;;;;;;;0.50;0.30;;;8.30;99.90;;;;;;5045787;28;20246;-67
2023/12/21 10:49:10;;;;;;;0.30;0.20;;;8.20;99.90;;;;;;5043686;28;20299;-68
2023/12/21 10:51:39;;;;;;;0.27;0.27;;;8.40;99.90;;;;;;5045021;28;20299;-69
2023/12/21 10:54:08;;;;;;;0.40;0.40;;;8.40;99.90;;;;;;5045416;28;20207;-67
2023/12/21 10:56:37;;;;;;;0.50;0.50;;;8.50;99.90;;;;;;5045528;28;20212;-67
2023/12/21 10:59:06;;;;;;;2.07;0.90;;;8.30;99.90;;;;;;5045362;28;20267;-75
2023/12/21 11:01:36;;;;;;;0.43;0.43;;;8.60;99.90;;;;;;5044929;28;20204;-67
2023/12/21 11:04:04;;;;;;;0.50;0.50;;;8.70;99.90;;;;;;5044977;28;20303;-67
2023/12/21 11:06:33;;;;;;;0.23;0.20;;;8.60;99.90;;;;;;5045283;28;20211;-65
2023/12/21 11:09:03;;;;;;;0.27;0.27;;;8.60;99.90;;;;;;5037285;28;20236;-67
2023/12/21 11:11:32;;;;;;;0.27;0.27;;;8.50;99.90;;;;;;5038252;28;20211;-67
2023/12/21 11:13:59;;;;;;;0.50;0.37;;;8.60;99.90;;;;;;5044552;28;20303;-67
2023/12/21 11:16:29;;;;;;;0.30;0.30;;;8.40;99.90;;;;;;5045092;28;20686;-67
2023/12/21 11:19:01;;;;;;;0.10;0.10;;;8.50;99.90;;;;;;5045176;28;20255;-67
2023/12/21 11:21:30;;;;;;;0.23;0.23;;;8.50;99.90;;;;;;5028868;28;20292;-67
2023/12/21 11:23:57;;;;;;;0.30;0.30;;;8.70;99.90;;;;;;5027115;28;20308;-68
2023/12/21 11:26:27;;;;;;;0.27;0.23;;;8.50;99.90;;;;;;5046039;28;20663;-67
2023/12/21 11:29:04;;;;;;;0.30;0.20;;;8.30;99.90;;;;;;5046188;28;20235;-67
2023/12/21 11:31:37;;;;;;;0.20;0.20;;;8.70;99.90;;;;;;5045169;28;20659;-67
2023/12/21 11:34:12;;;;;;;0.70;0.40;;;8.40;99.90;;;;;;5028815;28;20662;-67
2023/12/21 11:36:39;;;;;;;0.37;0.30;;;8.60;99.90;;;;;;5039057;28;20223;-67
2023/12/21 11:39:12;;;;;;;0.20;0.20;;;8.60;99.90;;;;;;5025235;28;20323;-67
2023/12/21 11:41:50;;;;;;;0.53;0.20;;;8.70;99.90;;;;;;5038712;28;20200;-67
2023/12/21 11:44:17;;;;;;;0.30;0.20;;;8.50;99.90;;;;;;5045214;28;20214;-68
2023/12/21 11:46:44;;;;;;;0.40;0.30;;;8.60;99.90;;;;;;5045087;28;20291;-68
2023/12/21 11:49:21;;;;;;;1.43;0.40;;;8.90;99.90;;;;;;5044337;28;20200;-68
2023/12/21 11:51:49;;;;;;;0.60;0.43;;;9.00;99.90;;;;;;5032451;28;20200;-67
2023/12/21 11:54:20;;;;;;;0.20;0.20;;;8.80;99.90;;;;;;5042250;28;20405;-67
2023/12/21 11:56:47;;;;;;;0.50;0.50;;;8.60;99.90;;;;;;5049232;28;20204;-67
2023/12/21 11:59:16;;;;;;;0.30;0.30;;;8.60;99.90;;;;;;5049179;28;20239;-68
2023/12/21 12:01:46;;;;;;;1.33;0.43;;;8.60;99.90;;;;;;5048458;28;20250;-67
2023/12/21 12:04:15;;;;;;;0.30;0.30;;;8.90;99.90;;;;;;5048761;28;20302;-67
2023/12/21 12:06:44;;;;;;;0.60;0.60;;;8.70;99.90;;;;;;5049016;28;20215;-67
2023/12/21 12:09:11;;;;;;;0.30;0.30;;;9.10;99.90;;;;;;5048422;28;20769;-68
2023/12/21 12:11:38;;;;;;;0.10;0.10;;;8.70;99.90;;;;;;5037971;28;20686;-67
2023/12/21 12:14:05;;;;;;;2.87;1.00;;;9.10;99.90;;;;;;5044861;28;20219;-67
2023/12/21 12:16:33;;;;;;;0.40;0.40;;;9.00;99.90;;;;;;5048491;28;20643;-68
2023/12/21 12:19:00;;;;;;;0.40;0.40;;;8.90;99.90;;;;;;5047121;28;20208;-67
2023/12/21 12:21:28;;;;;;;0.30;0.27;;;8.90;99.90;;;;;;5050467;28;20303;-69
2023/12/21 12:23:55;;;;;;;0.37;0.37;;;8.80;99.90;;;;;;5049510;28;20671;-68
2023/12/21 12:26:23;;;;;;;0.27;0.20;;;8.80;99.90;;;;;;5029576;28;20209;-68
2023/12/21 12:28:50;;;;;;;0.30;0.30;;;8.90;99.90;;;;;;5043863;28;20222;-68
2023/12/21 12:31:18;;;;;;;0.30;0.30;;;9.20;99.90;;;;;;5049879;28;20216;-69
2023/12/21 12:33:47;;;;;;;0.77;0.40;;;8.90;99.90;;;;;;5049570;28;20745;-69
2023/12/21 12:36:18;;;;;;;1.03;0.30;;;9.00;99.90;;;;;;5049916;28;20228;-69
2023/12/21 12:38:48;;;;;;;1.23;0.23;;;9.20;99.90;;;;;;5049455;28;20723;-69
2023/12/21 12:41:20;;;;;;;0.43;0.43;;;9.20;99.90;;;;;;5049671;28;20252;-69
2023/12/21 12:43:47;;;;;;;1.93;1.83;;;9.00;99.90;;;;;;5049871;28;20675;-68
2023/12/21 12:46:15;;;;;;;0.40;0.40;;;9.20;99.90;;;;;;5046309;28;20273;-69
2023/12/21 12:48:42;;;;;;;0.40;0.40;;;9.20;99.90;;;;;;5048691;28;20353;-68
2023/12/21 12:51:11;;;;;;;0.60;0.40;;;9.10;99.90;;;;;;5049299;28;20663;-68
2023/12/21 12:53:39;;;;;;;0.30;0.30;;;9.30;99.90;;;;;;5049791;28;20568;-68
2023/12/21 12:56:08;;;;;;;0.30;0.30;;;9.40;99.90;;;;;;5049739;28;20574;-68
2023/12/21 12:58:35;;;;;;;0.30;0.30;;;9.30;99.90;;;;;;5049741;28;20649;-68